createdAt,value
2018-01-12T00:00:47.643Z,99130.69
2018-01-12T00:03:15.187Z,99136.73
2018-01-12T00:05:42.731Z,99138.99
2018-01-12T00:08:10.286Z,99136.89
2018-01-12T00:10:37.835Z,99141.40
2018-01-12T00:13:05.597Z,99143.37
2018-01-12T00:15:33.190Z,99143.56
2018-01-12T00:18:00.719Z,99150.42
2018-01-12T00:20:28.259Z,99157.00
2018-01-12T00:22:55.798Z,99161.25
2018-01-12T00:25:23.482Z,99163.44
2018-01-12T00:27:51.299Z,99160.73
2018-01-12T00:30:18.844Z,99163.45
2018-01-12T00:32:46.396Z,99163.23
2018-01-12T00:35:14.054Z,99169.26
2018-01-12T00:37:41.642Z,99167.88
2018-01-12T00:40:09.290Z,99170.45
2018-01-12T00:42:37.109Z,99172.30
2018-01-12T00:45:04.826Z,99174.32
2018-01-12T00:47:32.645Z,99179.70
2018-01-12T00:50:00.363Z,99172.55
2018-01-12T00:52:27.944Z,99173.48
2018-01-12T00:54:55.520Z,99179.87
2018-01-12T00:57:23.114Z,99182.51
2018-01-12T00:59:50.681Z,99176.52
2018-01-12T01:02:18.257Z,99180.16
2018-01-12T01:04:45.798Z,99183.47
2018-01-12T01:07:13.590Z,99174.03
2018-01-12T01:09:41.211Z,99177.28
2018-01-12T01:12:08.751Z,99172.34
2018-01-12T01:14:36.443Z,99170.37
2018-01-12T01:17:03.985Z,99167.29
2018-01-12T01:19:31.523Z,99171.57
2018-01-12T01:21:59.069Z,99173.09
2018-01-12T01:24:26.713Z,99188.06
2018-01-12T01:26:54.323Z,99189.92
2018-01-12T01:29:21.854Z,99176.08
2018-01-12T01:31:49.770Z,99185.91
2018-01-12T01:34:17.318Z,99177.66
2018-01-12T01:36:44.863Z,99189.09
2018-01-12T01:39:12.480Z,99183.44
2018-01-12T01:41:40.015Z,99183.37
2018-01-12T01:44:07.551Z,99186.69
2018-01-12T01:46:35.179Z,99192.16
2018-01-12T01:49:02.733Z,99193.09
2018-01-12T01:51:30.283Z,99197.03
2018-01-12T01:53:57.817Z,99197.91
2018-01-12T01:56:25.467Z,99201.49
2018-01-12T01:58:53.263Z,99196.30
2018-01-12T02:01:20.980Z,99209.83
2018-01-12T02:03:48.548Z,99206.61
2018-01-12T02:06:16.218Z,99206.15
2018-01-12T02:08:43.801Z,99209.86
2018-01-12T02:11:11.340Z,99212.99
2018-01-12T02:13:38.975Z,99206.17
2018-01-12T02:16:06.695Z,99200.16
2018-01-12T02:18:34.306Z,99203.44
2018-01-12T02:21:01.891Z,99199.55
2018-01-12T02:23:29.533Z,99204.53
2018-01-12T02:25:57.150Z,99198.64
2018-01-12T02:28:24.689Z,99206.71
2018-01-12T02:30:52.239Z,99200.89
2018-01-12T02:33:20.013Z,99209.10
2018-01-12T02:35:47.611Z,99205.23
2018-01-12T02:38:15.138Z,99206.15
2018-01-12T02:40:42.676Z,99197.19
2018-01-12T02:43:10.288Z,99208.56
2018-01-12T02:45:37.872Z,99208.18
2018-01-12T02:48:05.620Z,99206.60
2018-01-12T02:50:33.190Z,99207.58
2018-01-12T02:53:00.923Z,99209.97
2018-01-12T02:55:28.577Z,99210.30
2018-01-12T02:57:56.392Z,99210.55
2018-01-12T03:00:24.019Z,99213.15
2018-01-12T03:02:51.610Z,99208.22
2018-01-12T03:05:19.250Z,99218.06
2018-01-12T03:07:46.791Z,99207.42
2018-01-12T03:10:14.382Z,99209.95
2018-01-12T03:12:42.008Z,99213.09
2018-01-12T03:15:09.586Z,99222.00
2018-01-12T03:17:37.130Z,99223.62
2018-01-12T03:20:04.694Z,99219.68
2018-01-12T03:22:32.471Z,99223.13
2018-01-12T03:25:00.191Z,99226.73
2018-01-12T03:27:27.811Z,99229.64
2018-01-12T03:29:55.492Z,99233.12
2018-01-12T03:32:23.033Z,99242.12
2018-01-12T03:34:50.655Z,99241.97
2018-01-12T03:37:18.226Z,99245.74
2018-01-12T03:39:45.760Z,99254.13
2018-01-12T03:42:13.306Z,99259.69
2018-01-12T03:44:41.032Z,99266.22
2018-01-12T03:47:08.755Z,99268.41
2018-01-12T03:49:36.304Z,99272.17
2018-01-12T03:52:04.063Z,99271.66
2018-01-12T03:54:31.642Z,99271.00
2018-01-12T03:56:59.183Z,99275.89
2018-01-12T03:59:26.966Z,99272.80
2018-01-12T04:01:54.511Z,99264.98
2018-01-12T04:04:22.277Z,99281.19
2018-01-12T04:06:49.888Z,99284.12
2018-01-12T04:09:17.518Z,99278.34
2018-01-12T04:11:45.098Z,99282.64
2018-01-12T04:14:12.635Z,99283.58
2018-01-12T04:16:40.171Z,99279.72
2018-01-12T04:19:07.719Z,99280.61
2018-01-12T04:21:35.278Z,99280.61
2018-01-12T04:24:02.976Z,99281.30
2018-01-12T04:26:30.511Z,99280.41
2018-01-12T04:28:58.235Z,99289.59
2018-01-12T04:31:25.782Z,99290.73
2018-01-12T04:33:53.395Z,99291.23
2018-01-12T04:36:20.984Z,99294.98
2018-01-12T04:38:48.633Z,99305.39
2018-01-12T04:41:16.346Z,99301.03
2018-01-12T04:43:43.961Z,99308.63
2018-01-12T04:46:11.646Z,99311.20
2018-01-12T04:48:39.299Z,99306.54
2018-01-12T04:51:06.871Z,99317.70
2018-01-12T04:53:34.410Z,99309.50
2018-01-12T04:56:02.152Z,99318.88
2018-01-12T04:58:29.692Z,99322.73
2018-01-12T05:00:57.445Z,99325.28
2018-01-12T05:03:24.986Z,99326.66
2018-01-12T05:05:52.531Z,99335.08
2018-01-12T05:08:20.160Z,99337.50
2018-01-12T05:10:47.698Z,99342.98
2018-01-12T05:13:15.288Z,99339.45
2018-01-12T05:15:42.831Z,99345.42
2018-01-12T05:18:10.370Z,99350.88
2018-01-12T05:20:38.132Z,99354.90
2018-01-12T05:23:05.690Z,99363.05
2018-01-12T05:25:33.370Z,99372.72
2018-01-12T05:28:00.910Z,99371.45
2018-01-12T05:30:28.449Z,99369.57
2018-01-12T05:32:55.994Z,99377.83
2018-01-12T05:35:23.572Z,99374.66
2018-01-12T05:37:51.211Z,99378.58
2018-01-12T05:40:18.954Z,99377.23
2018-01-12T05:42:46.694Z,99380.14
2018-01-12T05:45:14.301Z,99380.92
2018-01-12T05:47:41.927Z,99378.22
2018-01-12T05:50:09.656Z,99379.52
2018-01-12T05:52:37.188Z,99383.16
2018-01-12T05:55:04.726Z,99387.86
2018-01-12T05:57:32.291Z,99385.88
2018-01-12T05:59:59.878Z,99387.47
2018-01-12T06:02:39.279Z,99390.64
2018-01-12T06:05:18.734Z,99398.89
2018-01-12T06:07:46.277Z,99397.78
2018-01-12T06:10:13.818Z,99394.88
2018-01-12T06:12:41.354Z,99401.81
2018-01-12T06:15:08.906Z,99405.98
2018-01-12T06:17:36.542Z,99400.02
2018-01-12T06:20:04.110Z,99409.33
2018-01-12T06:22:31.962Z,99406.50
2018-01-12T06:24:59.507Z,99410.20
2018-01-12T06:27:27.295Z,99409.84
2018-01-12T06:29:54.858Z,99414.89
2018-01-12T06:32:22.537Z,99417.89
2018-01-12T06:34:50.249Z,99407.33
2018-01-12T06:37:17.798Z,99421.06
2018-01-12T06:39:45.491Z,99428.13
2018-01-12T06:42:13.025Z,99433.02
2018-01-12T06:44:40.567Z,99435.27
2018-01-12T06:47:08.263Z,99441.44
2018-01-12T06:49:35.798Z,99443.06
2018-01-12T06:52:03.395Z,99436.80
2018-01-12T06:54:30.930Z,99443.23
2018-01-12T06:56:58.470Z,99446.63
2018-01-12T06:59:26.092Z,99443.72
2018-01-12T07:01:53.593Z,99450.03
2018-01-12T07:04:21.139Z,99452.05
2018-01-12T07:06:48.694Z,99448.75
2018-01-12T07:09:16.265Z,99458.76
2018-01-12T07:11:43.919Z,99459.16
2018-01-12T07:14:11.502Z,99463.62
2018-01-12T07:16:39.155Z,99459.87
2018-01-12T07:19:06.683Z,99463.30
2018-01-12T07:24:36.136Z,99473.77
2018-01-12T07:27:03.735Z,99465.71
2018-01-12T07:29:31.276Z,99474.82
2018-01-12T07:31:58.978Z,99474.74
2018-01-12T07:34:26.668Z,99474.25
2018-01-12T07:36:54.206Z,99479.34
2018-01-12T07:39:21.843Z,99483.86
2018-01-12T07:41:49.559Z,99486.49
2018-01-12T07:44:17.147Z,99484.23
2018-01-12T07:46:44.690Z,99492.72
2018-01-12T07:49:12.230Z,99492.23
2018-01-12T07:51:39.838Z,99498.10
2018-01-12T07:54:07.375Z,99507.92
2018-01-12T07:56:34.910Z,99505.52
2018-01-12T07:59:02.515Z,99514.09
2018-01-12T08:01:35.905Z,99511.83
2018-01-12T08:04:03.499Z,99517.14
2018-01-12T08:06:31.242Z,99513.47
2018-01-12T08:08:58.870Z,99522.03
2018-01-12T08:11:26.421Z,99523.62
2018-01-12T08:13:54.101Z,99531.41
2018-01-12T08:16:21.923Z,99518.70
2018-01-12T08:18:49.558Z,99526.27
2018-01-12T08:21:17.266Z,99531.84
2018-01-12T08:23:45.060Z,99533.01
2018-01-12T08:26:12.610Z,99536.33
2018-01-12T08:28:40.411Z,99537.21
2018-01-12T08:31:07.972Z,99536.23
2018-01-12T08:33:35.651Z,99531.88
2018-01-12T08:36:03.194Z,99540.45
2018-01-12T08:38:30.734Z,99540.64
2018-01-12T08:40:58.322Z,99542.56
2018-01-12T08:43:25.908Z,99542.98
2018-01-12T08:45:53.462Z,99556.11
2018-01-12T08:48:21.022Z,99551.04
2018-01-12T08:50:48.559Z,99553.59
2018-01-12T08:53:16.142Z,99547.34
2018-01-12T08:55:43.806Z,99551.55
2018-01-12T08:58:11.348Z,99545.70
2018-01-12T09:00:38.910Z,99559.92
2018-01-12T09:03:06.454Z,99555.19
2018-01-12T09:05:34.062Z,99547.96
2018-01-12T09:08:01.702Z,99551.08
2018-01-12T09:10:29.377Z,99550.12
2018-01-12T09:12:56.993Z,99552.34
2018-01-12T09:15:29.503Z,99550.30
2018-01-12T09:18:00.929Z,99553.27
2018-01-12T09:20:35.418Z,99556.48
2018-01-12T09:26:06.910Z,99551.73
2018-01-12T09:28:34.454Z,99558.34
2018-01-12T09:31:03.010Z,99558.37
2018-01-12T09:33:30.658Z,99556.03
2018-01-12T09:35:58.191Z,99551.66
2018-01-12T09:41:20.994Z,99559.15
2018-01-12T09:43:48.578Z,99558.76
2018-01-12T09:46:16.114Z,99559.45
2018-01-12T09:48:51.672Z,99559.48
2018-01-12T09:51:19.201Z,99560.08
2018-01-12T09:53:46.834Z,99564.01
2018-01-12T09:56:14.382Z,99556.56
2018-01-12T09:58:44.888Z,99564.09
2018-01-12T10:04:27.363Z,99561.45
2018-01-12T10:06:55.225Z,99565.30
2018-01-12T10:09:30.719Z,99566.10
2018-01-12T10:11:58.376Z,99567.78
2018-01-12T10:14:25.906Z,99572.28
2018-01-12T10:16:53.598Z,99564.88
2018-01-12T10:19:21.215Z,99564.84
2018-01-12T10:21:48.767Z,99564.39
2018-01-12T10:24:16.310Z,99575.20
2018-01-12T10:26:43.966Z,99574.80
2018-01-12T10:29:11.780Z,99574.38
2018-01-12T10:31:55.254Z,99580.72
2018-01-12T10:37:25.914Z,99573.25
2018-01-12T10:40:01.454Z,99572.64
2018-01-12T10:42:29.078Z,99571.59
2018-01-12T10:44:56.653Z,99574.72
2018-01-12T10:47:27.130Z,99570.81
2018-01-12T10:53:00.294Z,99565.71
2018-01-12T10:55:27.954Z,99567.18
2018-01-12T10:57:55.546Z,99556.00
2018-01-12T11:00:33.488Z,99563.83
2018-01-12T11:03:01.035Z,99562.39
2018-01-12T11:05:28.722Z,99572.95
2018-01-12T11:07:56.262Z,99565.26
2018-01-12T11:10:23.954Z,99568.91
2018-01-12T11:12:51.762Z,99565.64
2018-01-12T11:15:19.406Z,99558.51
2018-01-12T11:17:47.131Z,99566.33
2018-01-12T11:20:14.677Z,99563.30
2018-01-12T11:22:42.408Z,99565.77
2018-01-12T11:25:10.012Z,99564.17
2018-01-12T11:27:37.562Z,99562.47
2018-01-12T11:30:05.300Z,99565.59
2018-01-12T11:32:32.997Z,99567.57
2018-01-12T11:35:00.639Z,99571.68
2018-01-12T11:37:28.186Z,99570.75
2018-01-12T11:39:56.007Z,99567.36
2018-01-12T11:42:23.789Z,99568.30
2018-01-12T11:44:51.323Z,99576.03
2018-01-12T11:47:18.919Z,99576.13
2018-01-12T11:49:46.642Z,99577.05
2018-01-12T11:52:14.187Z,99580.30
2018-01-12T11:54:41.912Z,99579.94
2018-01-12T11:57:09.486Z,99578.28
2018-01-12T11:59:37.262Z,99580.59
2018-01-12T12:02:04.993Z,99584.58
2018-01-12T12:04:32.684Z,99582.59
2018-01-12T12:07:00.274Z,99589.28
2018-01-12T12:09:27.986Z,99585.59
2018-01-12T12:11:55.713Z,99590.95
2018-01-12T12:14:23.266Z,99588.28
2018-01-12T12:16:50.942Z,99591.65
2018-01-12T12:19:18.546Z,99593.72
2018-01-12T12:21:46.178Z,99601.52
2018-01-12T12:24:13.718Z,99603.44
2018-01-12T12:26:41.263Z,99603.24
2018-01-12T12:29:08.934Z,99601.02
2018-01-12T12:31:36.649Z,99602.81
2018-01-12T12:34:04.235Z,99602.03
2018-01-12T12:36:31.766Z,99604.41
2018-01-12T12:38:59.513Z,99610.58
2018-01-12T12:41:27.058Z,99613.94
2018-01-12T12:43:54.590Z,99613.59
2018-01-12T12:46:22.122Z,99617.55
2018-01-12T12:48:49.682Z,99621.18
2018-01-12T12:51:17.230Z,99618.36
2018-01-12T12:53:44.778Z,99625.45
2018-01-12T12:56:13.118Z,99626.80
2018-01-12T12:58:40.874Z,99632.34
2018-01-12T13:01:08.640Z,99636.42
2018-01-12T13:03:36.327Z,99635.44
2018-01-12T13:06:03.887Z,99644.70
2018-01-12T13:08:31.434Z,99638.08
2018-01-12T13:10:58.978Z,99643.39
2018-01-12T13:13:26.586Z,99644.11
2018-01-12T13:15:54.150Z,99644.23
2018-01-12T13:18:21.718Z,99649.72
2018-01-12T13:20:49.262Z,99646.62
2018-01-12T13:23:16.801Z,99646.83
2018-01-12T13:25:44.547Z,99642.64
2018-01-12T13:28:12.086Z,99652.42
2018-01-12T13:30:39.630Z,99652.75
2018-01-12T13:33:07.198Z,99639.58
2018-01-12T13:35:34.915Z,99645.30
2018-01-12T13:38:02.502Z,99653.11
2018-01-12T13:40:30.151Z,99653.77
2018-01-12T13:42:57.735Z,99653.95
2018-01-12T13:45:25.282Z,99655.66
2018-01-12T13:47:52.807Z,99651.19
2018-01-12T13:50:20.523Z,99654.16
2018-01-12T13:52:48.539Z,99655.78
2018-01-12T13:55:16.082Z,99661.58
2018-01-12T13:57:43.630Z,99664.75
2018-01-12T14:00:11.293Z,99658.99
2018-01-12T14:02:38.897Z,99670.84
2018-01-12T14:05:06.471Z,99668.53
2018-01-12T14:07:34.011Z,99675.53
2018-01-12T14:10:01.558Z,99685.65
2018-01-12T14:12:29.187Z,99681.56
2018-01-12T14:14:56.776Z,99680.50
2018-01-12T14:17:24.320Z,99683.11
2018-01-12T14:19:51.943Z,99681.39
2018-01-12T14:22:19.666Z,99688.86
2018-01-12T14:24:47.210Z,99686.66
2018-01-12T14:27:14.822Z,99691.20
2018-01-12T14:29:42.399Z,99685.14
2018-01-12T14:32:09.935Z,99692.62
2018-01-12T14:34:37.486Z,99700.64
2018-01-12T14:37:05.034Z,99698.41
2018-01-12T14:39:32.698Z,99700.79
2018-01-12T14:42:00.248Z,99711.27
2018-01-12T14:44:27.971Z,99711.88
2018-01-12T14:46:55.639Z,99712.47
2018-01-12T14:49:23.177Z,99715.41
2018-01-12T14:51:50.870Z,99714.97
2018-01-12T14:54:18.422Z,99720.75
2018-01-12T14:56:45.983Z,99722.99
2018-01-12T14:59:13.526Z,99720.95
2018-01-12T15:01:41.066Z,99718.94
2018-01-12T15:04:08.658Z,99721.98
2018-01-12T15:06:36.219Z,99728.56
2018-01-12T15:09:03.870Z,99732.24
2018-01-12T15:11:31.514Z,99724.85
2018-01-12T15:13:59.042Z,99728.86
2018-01-12T15:16:26.751Z,99733.61
2018-01-12T15:18:54.286Z,99727.66
2018-01-12T15:21:21.824Z,99741.34
2018-01-12T15:23:49.373Z,99731.45
2018-01-12T15:26:16.914Z,99743.56
2018-01-12T15:28:44.502Z,99734.53
2018-01-12T15:31:12.110Z,99749.81
2018-01-12T15:33:39.655Z,99738.83
2018-01-12T15:36:07.504Z,99746.03
2018-01-12T15:38:35.200Z,99751.55
2018-01-12T15:41:02.822Z,99759.70
2018-01-12T15:43:30.509Z,99761.30
2018-01-12T15:45:58.251Z,99762.14
2018-01-12T15:48:25.794Z,99754.27
2018-01-12T15:50:53.505Z,99768.17
2018-01-12T15:53:21.316Z,99771.16
2018-01-12T15:55:48.854Z,99777.34
2018-01-12T15:58:16.551Z,99785.49
2018-01-12T16:00:44.100Z,99782.86
2018-01-12T16:03:11.642Z,99789.44
2018-01-12T16:05:39.234Z,99779.29
2018-01-12T16:08:06.794Z,99787.36
2018-01-12T16:10:34.406Z,99790.98
2018-01-12T16:13:01.965Z,99786.77
2018-01-12T16:15:30.386Z,99792.14
2018-01-12T16:17:58.200Z,99798.02
2018-01-12T16:20:25.733Z,99797.13
2018-01-12T16:22:53.269Z,99790.88
2018-01-12T16:25:20.816Z,99805.36
2018-01-12T16:27:48.568Z,99803.91
2018-01-12T16:30:16.184Z,99808.38
2018-01-12T16:32:43.714Z,99814.89
2018-01-12T16:35:11.421Z,99816.33
2018-01-12T16:37:38.984Z,99814.60
2018-01-12T16:40:06.527Z,99810.05
2018-01-12T16:42:34.126Z,99817.11
2018-01-12T16:45:01.793Z,99819.31
2018-01-12T16:47:29.337Z,99810.02
2018-01-12T16:49:56.882Z,99823.55
2018-01-12T16:52:24.410Z,99826.06
2018-01-12T16:54:52.055Z,99830.44
2018-01-12T16:57:19.607Z,99822.72
2018-01-12T16:59:47.155Z,99835.31
2018-01-12T17:02:14.823Z,99826.44
2018-01-12T17:04:42.358Z,99840.55
2018-01-12T17:07:10.055Z,99834.51
2018-01-12T17:09:37.627Z,99835.95
2018-01-12T17:12:05.390Z,99841.91
2018-01-12T17:14:32.946Z,99838.20
2018-01-12T17:17:00.490Z,99842.55
2018-01-12T17:19:28.078Z,99841.28
2018-01-12T17:21:55.624Z,99843.47
2018-01-12T17:24:23.158Z,99848.13
2018-01-12T17:26:50.862Z,99845.72
2018-01-12T17:29:18.578Z,99850.84
2018-01-12T17:31:46.214Z,99862.70
2018-01-12T17:34:13.920Z,99854.38
2018-01-12T17:36:41.460Z,99861.75
2018-01-12T17:39:09.281Z,99862.75
2018-01-12T17:41:36.771Z,99869.11
2018-01-12T17:44:04.354Z,99870.81
2018-01-12T17:46:31.982Z,99865.39
2018-01-12T17:48:59.546Z,99864.77
2018-01-12T17:51:27.107Z,99868.98
2018-01-12T17:53:54.647Z,99868.55
2018-01-12T17:56:22.226Z,99866.84
2018-01-12T17:58:49.765Z,99869.89
2018-01-12T18:01:17.513Z,99877.22
2018-01-12T18:03:45.182Z,99879.44
2018-01-12T18:06:12.881Z,99886.37
2018-01-12T18:08:40.470Z,99879.94
2018-01-12T18:11:08.022Z,99883.57
2018-01-12T18:13:35.734Z,99881.22
2018-01-12T18:16:03.459Z,99891.44
2018-01-12T18:18:31.075Z,99889.60
2018-01-12T18:20:58.671Z,99897.52
2018-01-12T18:23:26.234Z,99906.61
2018-01-12T18:25:53.778Z,99908.47
2018-01-12T18:28:21.355Z,99908.81
2018-01-12T18:30:48.890Z,99914.89
2018-01-12T18:33:16.583Z,99920.97
2018-01-12T18:35:44.122Z,99924.04
2018-01-12T18:38:11.659Z,99921.56
2018-01-12T18:40:39.198Z,99914.41
2018-01-12T18:43:06.812Z,99917.77
2018-01-12T18:45:34.527Z,99931.90
2018-01-12T18:48:02.066Z,99928.39
2018-01-12T18:50:29.801Z,99927.64
2018-01-12T18:52:57.349Z,99929.81
2018-01-12T18:55:24.894Z,99936.32
2018-01-12T18:57:52.474Z,99925.70
2018-01-12T19:00:20.273Z,99933.81
2018-01-12T19:02:47.810Z,99934.19
2018-01-12T19:05:15.368Z,99938.56
2018-01-12T19:07:42.902Z,99945.91
2018-01-12T19:10:10.647Z,99948.83
2018-01-12T19:12:38.181Z,99941.34
2018-01-12T19:15:05.734Z,99950.20
2018-01-12T19:17:33.502Z,99951.06
2018-01-12T19:20:01.070Z,99952.64
2018-01-12T19:22:28.732Z,99963.77
2018-01-12T19:24:56.271Z,99953.63
2018-01-12T19:27:23.818Z,99953.63
2018-01-12T19:29:51.366Z,99956.97
2018-01-12T19:32:19.104Z,99955.84
2018-01-12T19:34:46.729Z,99951.20
2018-01-12T19:37:14.270Z,99953.34
2018-01-12T19:39:41.855Z,99951.75
2018-01-12T19:42:09.463Z,99959.05
2018-01-12T19:44:37.004Z,99949.62
2018-01-12T19:47:04.610Z,99964.72
2018-01-12T19:49:32.221Z,99970.69
2018-01-12T19:51:59.948Z,99972.41
2018-01-12T19:54:27.545Z,99973.84
2018-01-12T19:56:55.099Z,99975.47
2018-01-12T19:59:22.692Z,99975.70
2018-01-12T20:01:50.230Z,99980.13
2018-01-12T20:04:17.770Z,99977.54
2018-01-12T20:06:45.318Z,99986.47
2018-01-12T20:09:12.878Z,99979.33
2018-01-12T20:11:40.466Z,99982.75
2018-01-12T20:14:08.207Z,99979.27
2018-01-12T20:16:35.738Z,99987.55
2018-01-12T20:19:03.446Z,99986.83
2018-01-12T20:21:31.131Z,99992.63
2018-01-12T20:23:58.847Z,99996.31
2018-01-12T20:26:26.393Z,99997.75
2018-01-12T20:28:54.019Z,99992.22
2018-01-12T20:31:21.569Z,99993.77
2018-01-12T20:33:49.127Z,100002.08
2018-01-12T20:36:16.927Z,99997.75
2018-01-12T20:38:44.644Z,99999.16
2018-01-12T20:41:12.182Z,99997.07
2018-01-12T20:43:39.729Z,99997.38
2018-01-12T20:46:07.266Z,99999.95
2018-01-12T20:48:35.033Z,99988.73
2018-01-12T20:51:02.578Z,100005.94
2018-01-12T20:53:30.123Z,100000.33
2018-01-12T20:55:57.910Z,100000.50
2018-01-12T20:58:25.462Z,99997.64
2018-01-12T21:00:53.089Z,100012.14
2018-01-12T21:03:20.657Z,100009.92
2018-01-12T21:05:48.198Z,100007.80
2018-01-12T21:08:15.746Z,100007.06
2018-01-12T21:10:43.294Z,100006.66
2018-01-12T21:13:10.875Z,100010.98
2018-01-12T21:15:38.418Z,100015.06
2018-01-12T21:18:05.963Z,100009.52
2018-01-12T21:20:33.518Z,100013.95
2018-01-12T21:23:01.066Z,100018.34
2018-01-12T21:25:28.730Z,100019.94
2018-01-12T21:27:56.271Z,100020.98
2018-01-12T21:30:23.960Z,100020.11
2018-01-12T21:32:51.509Z,100023.86
2018-01-12T21:35:19.057Z,100023.84
2018-01-12T21:37:46.653Z,100025.14
2018-01-12T21:40:14.222Z,100031.56
2018-01-12T21:42:41.803Z,100017.79
2018-01-12T21:45:09.357Z,100019.36
2018-01-12T21:47:37.072Z,100013.14
2018-01-12T21:50:04.658Z,100013.91
2018-01-12T21:52:32.218Z,100015.92
2018-01-12T21:54:59.754Z,100017.76
2018-01-12T21:57:27.296Z,100025.42
2018-01-12T21:59:54.975Z,100021.70
2018-01-12T22:02:22.526Z,100037.90
2018-01-12T22:04:50.310Z,100034.09
2018-01-12T22:07:18.127Z,100031.09
2018-01-12T22:09:45.746Z,100043.88
2018-01-12T22:12:13.326Z,100038.70
2018-01-12T22:14:40.981Z,100044.83
2018-01-12T22:17:08.517Z,100042.19
2018-01-12T22:19:36.066Z,100048.38
2018-01-12T22:22:03.618Z,100043.66
2018-01-12T22:24:31.154Z,100040.79
2018-01-12T22:26:58.706Z,100037.31
2018-01-12T22:29:26.250Z,100036.02
2018-01-12T22:31:53.786Z,100037.73
2018-01-12T22:34:21.330Z,100038.17
2018-01-12T22:36:48.885Z,100042.56
2018-01-12T22:39:16.453Z,100039.98
2018-01-12T22:41:44.066Z,100049.99
2018-01-12T22:44:11.622Z,100045.21
2018-01-12T22:46:39.225Z,100049.00
2018-01-12T22:49:06.828Z,100046.64
2018-01-12T22:51:34.390Z,100041.69
2018-01-12T22:54:01.927Z,100046.77
2018-01-12T22:56:29.682Z,100042.97
2018-01-12T22:58:57.249Z,100043.46
2018-01-12T23:01:24.815Z,100042.17
2018-01-12T23:03:52.353Z,100029.44
2018-01-12T23:06:19.929Z,100038.81
2018-01-12T23:08:47.583Z,100036.17
2018-01-12T23:11:15.117Z,100038.52
2018-01-12T23:13:42.906Z,100029.88
2018-01-12T23:16:10.454Z,100028.38
2018-01-12T23:18:38.066Z,100037.18
2018-01-12T23:21:05.766Z,100039.27
2018-01-12T23:23:33.383Z,100040.36
2018-01-12T23:26:00.934Z,100039.75
2018-01-12T23:28:28.485Z,100042.18
2018-01-12T23:30:56.122Z,100050.40
2018-01-12T23:33:23.657Z,100050.45
2018-01-12T23:35:51.213Z,100048.74
2018-01-12T23:38:18.887Z,100049.10
2018-01-12T23:40:46.422Z,100049.65
2018-01-12T23:43:14.221Z,100064.11
2018-01-12T23:45:41.838Z,100061.20
2018-01-12T23:48:09.559Z,100061.78
2018-01-12T23:50:37.162Z,100050.65
2018-01-12T23:53:04.758Z,100047.70
2018-01-12T23:55:32.414Z,100052.98
2018-01-12T23:57:59.962Z,100053.54
